Time;durP1;ratioP1;P1;durP2;ratioP2;P2;SDS_P1;SDS_P2;PMS_P1;PMS_P2;Temp;Humidity;BMP_temperature;BMP_pressure;BME280_temperature;BME280_humidity;BME280_pressure;Samples;Min_cycle;Max_cycle;Signal;HPM_P1;HPM_P2
2021/09/11 00:02:20;;;;;;;10.70;5.70;;;;;;;14.56;63.35;100219.13;5111104;28;20030;-62
2021/09/11 00:04:47;;;;;;;14.00;6.65;;;;;;;14.56;63.00;100217.25;5110734;28;20442;-62
2021/09/11 00:07:13;;;;;;;11.05;6.63;;;;;;;14.57;63.35;100220.81;5111013;28;20020;-62
2021/09/11 00:09:39;;;;;;;10.70;6.30;;;;;;;14.56;63.12;100213.72;5111103;28;20065;-61
2021/09/11 00:12:06;;;;;;;9.52;6.47;;;;;;;14.47;63.81;100216.28;5109439;28;20028;-62
2021/09/11 00:14:32;;;;;;;13.18;6.50;;;;;;;14.41;63.60;100210.59;5092605;28;20034;-64
2021/09/11 00:16:57;;;;;;;14.35;6.50;;;;;;;14.31;64.21;100211.41;5112382;28;20039;-63
2021/09/11 00:19:23;;;;;;;11.80;6.38;;;;;;;14.32;64.60;100214.97;5114772;28;20088;-62
2021/09/11 00:21:48;;;;;;;13.07;6.68;;;;;;;14.28;64.55;100213.53;5114142;27;20106;-62
2021/09/11 00:24:14;;;;;;;14.13;6.32;;;;;;;14.24;64.57;100190.56;5129435;27;20035;-61
2021/09/11 00:26:39;;;;;;;13.02;6.43;;;;;;;14.24;64.89;100215.66;5134129;27;20051;-62
2021/09/11 00:29:06;;;;;;;10.25;6.28;;;;;;;14.19;65.09;100207.97;5134991;27;20091;-64
2021/09/11 00:31:32;;;;;;;9.30;6.70;;;;;;;14.05;65.53;100190.38;5133068;27;20118;-63
2021/09/11 00:33:57;;;;;;;12.50;6.63;;;;;;;14.19;65.25;100207.97;5134937;27;20065;-62
2021/09/11 00:36:23;;;;;;;18.50;6.97;;;;;;;14.24;64.84;100206.75;5133873;27;20031;-62
2021/09/11 00:38:48;;;;;;;9.55;6.93;;;;;;;14.13;64.80;100187.00;5134814;27;20476;-63
2021/09/11 00:41:14;;;;;;;8.65;6.47;;;;;;;14.36;64.59;100219.06;5126161;27;20027;-63
2021/09/11 00:43:48;;;;;;;8.57;6.60;;;;;;;14.32;64.50;100188.03;5113765;28;20503;-62
2021/09/11 00:46:14;;;;;;;15.02;6.88;;;;;;;14.41;64.42;100222.19;5095943;28;20055;-60
2021/09/11 00:48:41;;;;;;;11.52;6.80;;;;;;;14.41;64.67;100227.59;5113915;28;20110;-64
2021/09/11 00:51:07;;;;;;;11.80;7.15;;;;;;;14.21;64.39;100195.22;5115985;27;20551;-62
2021/09/11 00:53:33;;;;;;;12.77;7.30;;;;;;;14.31;64.12;100197.09;5133180;27;20100;-62
2021/09/11 00:55:59;;;;;;;12.80;7.57;;;;;;;14.42;64.45;100228.47;5133358;27;20050;-62
2021/09/11 00:58:25;;;;;;;11.80;6.88;;;;;;;14.47;64.50;100221.66;5115879;27;20114;-62
2021/09/11 01:00:51;;;;;;;12.38;7.13;;;;;;;14.31;64.53;100191.72;5134058;27;20023;-62
2021/09/11 01:03:17;;;;;;;13.38;7.30;;;;;;;14.42;64.73;100215.81;5131065;27;20027;-62
2021/09/11 01:05:44;;;;;;;11.80;7.50;;;;;;;14.43;65.17;100220.22;5115732;27;20111;-62
2021/09/11 01:08:10;;;;;;;10.55;7.00;;;;;;;14.39;65.32;100229.56;5132933;27;20102;-62
2021/09/11 01:10:40;;;;;;;11.70;7.15;;;;;;;14.46;65.44;100230.72;5133004;27;20425;-61
2021/09/11 01:13:10;;;;;;;15.32;7.70;;;;;;;14.42;65.60;100223.06;5121512;27;20027;-62
2021/09/11 01:15:38;;;;;;;15.13;7.53;;;;;;;14.35;65.90;100217.38;5113873;28;20368;-61
2021/09/11 01:18:05;;;;;;;13.25;7.75;;;;;;;14.10;65.74;100192.66;5116123;27;20035;-62
2021/09/11 01:20:31;;;;;;;14.32;7.30;;;;;;;14.27;65.88;100231.53;5133974;27;20049;-62
2021/09/11 01:22:57;;;;;;;17.85;8.38;;;;;;;14.24;66.21;100230.97;5125945;27;20088;-63
2021/09/11 01:25:23;;;;;;;12.75;7.55;;;;;;;14.19;66.22;100228.69;5112596;27;20481;-61
2021/09/11 01:27:50;;;;;;;11.65;7.55;;;;;;;14.28;66.38;100232.41;5110975;28;20051;-62
2021/09/11 01:30:18;;;;;;;9.98;7.20;;;;;;;14.34;66.35;100238.06;5112753;28;20020;-63
2021/09/11 01:32:44;;;;;;;13.02;7.38;;;;;;;14.36;66.06;100235.25;5112970;27;20031;-64
2021/09/11 01:35:10;;;;;;;11.50;8.05;;;;;;;14.41;66.08;100232.13;5132072;27;20083;-63
2021/09/11 01:37:36;;;;;;;13.85;7.60;;;;;;;14.48;64.99;100233.28;5132381;27;20427;-62
2021/09/11 01:40:03;;;;;;;12.93;7.85;;;;;;;14.31;65.30;100203.31;5133367;27;20383;-62
2021/09/11 01:42:29;;;;;;;17.58;8.45;;;;;;;14.49;64.79;100224.19;5132307;27;20485;-62
2021/09/11 01:45:18;;;;;;;12.07;8.45;;;;;;;14.39;64.68;100213.41;5130643;27;20038;-62
2021/09/11 01:47:45;;;;;;;14.75;7.93;;;;;;;14.40;65.00;100231.28;5132120;27;20106;-61
2021/09/11 01:50:13;;;;;;;13.38;8.43;;;;;;;14.30;65.12;100235.81;5133741;27;20023;-61
2021/09/11 01:52:39;;;;;;;14.43;8.50;;;;;;;14.24;65.23;100221.03;5133316;27;20083;-62
2021/09/11 01:55:07;;;;;;;15.75;8.45;;;;;;;14.26;65.67;100229.00;5131311;27;20023;-61
2021/09/11 01:57:45;;;;;;;16.85;8.70;;;;;;;14.32;65.40;100233.81;5133929;27;20031;-61
2021/09/11 02:00:13;;;;;;;16.92;8.82;;;;;;;14.15;65.89;100233.47;5131976;27;20396;-62
2021/09/11 02:02:39;;;;;;;12.93;8.65;;;;;;;14.08;66.01;100224.25;5133338;27;20042;-62
2021/09/11 02:05:07;;;;;;;15.82;8.85;;;;;;;14.09;66.10;100238.56;5130891;27;20054;-60
2021/09/11 02:07:33;;;;;;;15.60;8.50;;;;;;;14.06;65.84;100234.31;5133164;27;20105;-63
2021/09/11 02:09:58;;;;;;;13.13;8.27;;;;;;;13.96;66.35;100219.94;5132925;27;20031;-62
2021/09/11 02:12:24;;;;;;;13.32;8.30;;;;;;;13.94;66.47;100225.50;5132957;27;20030;-61
2021/09/11 02:14:49;;;;;;;13.95;8.27;;;;;;;13.82;66.92;100224.72;5130961;27;20035;-62
2021/09/11 02:17:15;;;;;;;14.32;8.45;;;;;;;13.67;67.51;100226.06;5130785;27;20118;-61
2021/09/11 02:19:41;;;;;;;15.20;9.38;;;;;;;13.57;67.78;100224.19;5133057;27;20027;-61
2021/09/11 02:22:10;;;;;;;18.42;9.18;;;;;;;13.44;68.24;100226.22;5131824;27;20043;-62
2021/09/11 02:24:39;;;;;;;16.58;8.88;;;;;;;13.32;68.56;100220.91;5131816;27;20101;-62
2021/09/11 02:27:05;;;;;;;16.30;8.80;;;;;;;13.16;69.12;100207.94;5131279;27;20149;-63
2021/09/11 02:29:32;;;;;;;20.15;8.82;;;;;;;13.18;69.68;100226.59;5131143;27;20247;-62
2021/09/11 02:31:57;;;;;;;15.80;9.15;;;;;;;13.16;69.50;100231.25;5133171;27;20114;-62
2021/09/11 02:34:25;;;;;;;14.90;8.70;;;;;;;13.16;69.55;100232.13;5132817;27;20179;-62
2021/09/11 02:36:50;;;;;;;15.60;8.90;;;;;;;13.16;69.58;100229.44;5131016;27;20031;-62
2021/09/11 02:39:15;;;;;;;17.98;9.52;;;;;;;13.14;69.62;100217.97;5123233;27;20027;-65
2021/09/11 02:41:41;;;;;;;15.60;8.75;;;;;;;13.14;69.75;100233.22;5110928;28;20110;-62
2021/09/11 02:44:07;;;;;;;18.00;8.75;;;;;;;13.05;69.92;100235.72;5093965;28;20062;-62
2021/09/11 02:46:32;;;;;;;17.90;9.32;;;;;;;12.95;70.11;100213.28;5110044;28;20032;-62
2021/09/11 02:48:59;;;;;;;18.25;9.15;;;;;;;12.91;70.11;100222.59;5112917;28;20039;-63
2021/09/11 02:51:28;;;;;;;20.60;10.35;;;;;;;12.90;70.32;100227.13;5112176;28;20031;-62
2021/09/11 02:53:54;;;;;;;19.13;9.48;;;;;;;12.84;70.49;100221.41;5112201;28;20032;-63
2021/09/11 02:56:20;;;;;;;19.10;9.75;;;;;;;12.82;70.39;100228.75;5111501;28;20032;-64
2021/09/11 02:58:45;;;;;;;16.98;9.95;;;;;;;12.77;70.66;100221.91;5093185;28;20042;-62
2021/09/11 03:01:11;;;;;;;17.65;9.65;;;;;;;12.73;70.91;100225.84;5105164;28;20034;-62
2021/09/11 03:03:38;;;;;;;17.85;9.98;;;;;;;12.70;71.02;100231.47;5110701;28;20080;-63
2021/09/11 03:06:04;;;;;;;14.77;9.95;;;;;;;12.77;70.56;100226.44;5111425;28;20028;-62
2021/09/11 03:08:30;;;;;;;19.17;10.90;;;;;;;12.77;70.03;100221.91;5109925;28;20030;-62
2021/09/11 03:10:56;;;;;;;17.08;10.13;;;;;;;12.79;70.70;100224.47;5117886;28;20030;-63
2021/09/11 03:13:22;;;;;;;14.18;10.25;;;;;;;12.73;70.78;100225.84;5130705;28;20121;-61
2021/09/11 03:15:48;;;;;;;14.77;10.25;;;;;;;12.76;70.85;100236.31;5132038;27;20034;-61
2021/09/11 03:18:13;;;;;;;17.50;10.02;;;;;;;12.81;70.84;100233.25;5131152;28;20027;-62
2021/09/11 03:20:39;;;;;;;19.98;10.50;;;;;;;12.82;70.67;100224.22;5130608;27;20128;-62
2021/09/11 03:23:05;;;;;;;17.60;10.52;;;;;;;12.87;70.58;100238.09;5131785;27;20476;-61
2021/09/11 03:25:32;;;;;;;19.40;10.35;;;;;;;12.97;70.34;100238.19;5131639;27;20027;-62
2021/09/11 03:27:58;;;;;;;16.45;10.55;;;;;;;13.14;69.96;100233.22;5130486;28;20050;-63
2021/09/11 03:30:24;;;;;;;15.88;9.85;;;;;;;13.30;69.58;100232.78;5130564;28;20391;-62
2021/09/11 03:32:51;;;;;;;18.95;10.20;;;;;;;13.81;67.63;100227.53;5130020;27;20043;-62
2021/09/11 03:35:16;;;;;;;23.08;10.65;;;;;;;14.27;65.74;100238.78;5131443;27;20400;-62
2021/09/11 03:37:42;;;;;;;19.02;10.02;;;;;;;14.39;65.38;100240.34;5131174;28;20488;-62
2021/09/11 03:40:08;;;;;;;20.85;10.95;;;;;;;14.71;64.63;100238.44;5131656;27;20023;-62
2021/09/11 03:42:34;;;;;;;16.90;10.10;;;;;;;15.62;61.75;100223.72;5128741;28;20030;-61
2021/09/11 03:44:59;;;;;;;19.50;11.50;;;;;;;16.69;58.21;100212.50;5132084;27;20035;-62
2021/09/11 03:47:25;;;;;;;14.82;9.32;;;;;;;17.77;54.73;100214.16;5131573;28;20111;-63
2021/09/11 03:49:51;;;;;;;17.60;8.43;;;;;;;18.71;51.82;100219.56;5131884;27;20063;-62
2021/09/11 03:52:17;;;;;;;17.23;8.55;;;;;;;19.45;49.88;100224.19;5130486;27;20505;-66
2021/09/11 03:54:42;;;;;;;14.82;9.40;;;;;;;20.04;48.16;100214.84;5134415;27;20039;-63
2021/09/11 03:57:08;;;;;;;18.98;9.13;;;;;;;20.72;46.36;100227.88;5134135;27;20088;-62
2021/09/11 03:59:33;;;;;;;17.67;9.55;;;;;;;21.26;45.13;100217.97;5134261;27;20476;-62
2021/09/11 04:01:59;;;;;;;14.82;9.02;;;;;;;21.99;43.12;100222.00;5117557;27;20023;-62
2021/09/11 04:04:24;;;;;;;16.60;8.80;;;;;;;22.79;41.37;100231.13;5132540;27;20487;-62
2021/09/11 04:06:49;;;;;;;12.73;7.97;;;;;;;23.59;39.34;100224.66;5135750;27;20045;-64
2021/09/11 04:09:15;;;;;;;14.30;8.18;;;;;;;24.21;37.87;100188.41;5134285;27;20062;-62
2021/09/11 04:11:41;;;;;;;11.05;7.57;;;;;;;24.87;36.59;100218.94;5135214;27;20472;-62
2021/09/11 04:14:06;;;;;;;11.40;8.20;;;;;;;24.92;36.20;100224.63;5131964;27;20535;-62
2021/09/11 04:16:31;;;;;;;11.57;8.00;;;;;;;24.95;36.02;100224.19;5116944;27;20063;-64
2021/09/11 04:18:57;;;;;;;12.55;8.23;;;;;;;25.27;35.25;100227.16;5135347;27;20383;-62
2021/09/11 04:21:22;;;;;;;12.90;7.55;;;;;;;25.25;35.06;100223.78;5134946;27;20035;-64
2021/09/11 04:23:48;;;;;;;9.82;6.93;;;;;;;25.25;34.75;100222.94;5131375;27;20504;-66
2021/09/11 04:26:13;;;;;;;10.35;6.78;;;;;;;25.00;34.88;100218.94;5134905;27;20144;-62
2021/09/11 04:28:39;;;;;;;10.45;6.80;;;;;;;24.39;35.49;100198.81;5134946;27;20040;-61
2021/09/11 04:31:04;;;;;;;9.00;6.82;;;;;;;23.77;37.28;100231.50;5134892;27;20110;-61
2021/09/11 04:33:30;;;;;;;12.85;6.82;;;;;;;23.18;37.89;100212.56;5133312;27;20388;-62
2021/09/11 04:35:56;;;;;;;10.38;6.47;;;;;;;22.88;38.44;100231.84;5131845;27;20034;-64
2021/09/11 04:38:21;;;;;;;11.00;6.78;;;;;;;22.50;39.42;100213.84;5134737;27;20031;-62
2021/09/11 04:40:47;;;;;;;8.95;7.47;;;;;;;22.39;39.68;100219.75;5133907;27;20038;-64
2021/09/11 04:43:12;;;;;;;11.05;6.57;;;;;;;22.02;40.42;100208.81;5133127;27;20030;-61
2021/09/11 04:45:38;;;;;;;10.63;7.00;;;;;;;22.08;40.20;100216.25;5131544;27;20050;-62
2021/09/11 04:48:04;;;;;;;9.05;6.65;;;;;;;21.97;40.23;100214.00;5133668;27;20079;-63
2021/09/11 04:50:29;;;;;;;12.18;6.75;;;;;;;21.81;40.29;100215.03;5134872;27;20031;-62
2021/09/11 04:52:55;;;;;;;9.43;7.20;;;;;;;21.73;41.01;100217.88;5134270;27;20038;-62
2021/09/11 04:55:21;;;;;;;8.70;6.82;;;;;;;21.68;40.55;100199.34;5132472;27;20019;-63
2021/09/11 04:57:47;;;;;;;9.90;6.82;;;;;;;22.19;39.52;100212.19;5133834;27;20035;-62
2021/09/11 05:00:14;;;;;;;8.70;6.63;;;;;;;22.37;39.33;100208.19;5134471;27;20110;-62
2021/09/11 05:02:39;;;;;;;11.35;6.40;;;;;;;22.46;39.20;100209.81;5133352;27;20130;-64
2021/09/11 05:05:06;;;;;;;10.43;6.32;;;;;;;22.48;39.25;100215.06;5134361;27;20504;-63
2021/09/11 05:07:32;;;;;;;11.25;7.00;;;;;;;22.28;39.51;100218.34;5119310;27;20392;-62
2021/09/11 05:09:57;;;;;;;12.35;6.03;;;;;;;22.01;39.89;100209.84;5112163;28;20027;-65
2021/09/11 05:12:22;;;;;;;8.40;6.32;;;;;;;21.87;40.38;100208.84;5113568;28;20027;-62
2021/09/11 05:14:48;;;;;;;11.68;6.40;;;;;;;21.62;40.76;100189.19;5113567;27;20031;-62
2021/09/11 05:17:13;;;;;;;10.38;6.35;;;;;;;21.40;41.34;100193.66;5112747;27;20063;-62
2021/09/11 05:19:39;;;;;;;9.30;6.32;;;;;;;21.21;42.25;100199.47;5111786;28;20027;-62
2021/09/11 05:22:05;;;;;;;10.50;6.65;;;;;;;21.00;42.33;100191.16;5111744;28;20540;-63
2021/09/11 05:24:30;;;;;;;8.43;6.88;;;;;;;20.98;42.29;100180.47;5112813;28;20035;-62
2021/09/11 05:26:56;;;;;;;10.50;6.55;;;;;;;21.34;42.24;100203.41;5113719;27;20050;-65
2021/09/11 05:29:21;;;;;;;10.10;6.10;;;;;;;21.74;40.95;100198.59;5111831;27;20035;-66
2021/09/11 05:31:47;;;;;;;8.57;6.35;;;;;;;21.61;41.01;100169.25;5113663;28;21037;-63
2021/09/11 05:34:12;;;;;;;9.35;6.88;;;;;;;21.75;41.07;100194.00;5094706;28;20497;-63
2021/09/11 05:36:38;;;;;;;8.57;7.13;;;;;;;21.70;41.14;100193.69;5112536;28;20031;-61
2021/09/11 05:39:04;;;;;;;7.68;6.70;;;;;;;21.87;40.79;100192.47;5096197;28;20035;-64
2021/09/11 05:41:29;;;;;;;10.98;6.97;;;;;;;22.28;39.82;100190.25;5112713;28;20068;-62
2021/09/11 05:43:55;;;;;;;8.70;6.88;;;;;;;22.14;39.80;100179.19;5112827;28;20058;-65
2021/09/11 05:46:20;;;;;;;11.60;7.07;;;;;;;22.04;40.15;100193.09;5131848;27;20031;-62
2021/09/11 05:48:46;;;;;;;11.23;6.82;;;;;;;21.68;40.83;100172.09;5126966;27;20396;-62
2021/09/11 05:51:11;;;;;;;10.45;6.68;;;;;;;21.49;41.86;100203.47;5111413;28;20070;-62
2021/09/11 05:53:37;;;;;;;10.85;6.47;;;;;;;21.32;42.21;100206.34;5128559;27;20035;-65
2021/09/11 05:56:02;;;;;;;11.05;7.10;;;;;;;21.26;42.57;100206.22;5133587;27;20035;-65
2021/09/11 05:58:29;;;;;;;10.65;6.97;;;;;;;20.96;42.95;100196.09;5114151;27;20031;-66
2021/09/11 06:00:57;;;;;;;11.90;7.28;;;;;;;20.78;43.80;100205.41;5131610;27;20028;-64
2021/09/11 06:03:23;;;;;;;15.77;7.82;;;;;;;20.59;44.29;100205.88;5132368;27;20029;-64
2021/09/11 06:05:49;;;;;;;11.40;7.88;;;;;;;20.39;44.42;100203.63;5133055;27;20122;-63
2021/09/11 06:08:14;;;;;;;16.05;7.75;;;;;;;20.13;45.69;100201.22;5132726;27;20027;-64
2021/09/11 06:10:40;;;;;;;14.68;7.93;;;;;;;20.08;45.80;100209.91;5130984;27;20133;-65
2021/09/11 06:13:05;;;;;;;11.10;8.30;;;;;;;19.95;46.15;100199.63;5133388;27;20038;-64
2021/09/11 06:15:31;;;;;;;13.95;8.35;;;;;;;19.90;46.29;100205.53;5131014;27;20034;-64
2021/09/11 06:17:56;;;;;;;15.90;8.55;;;;;;;19.82;46.87;100202.00;5132816;27;20027;-65
2021/09/11 06:20:22;;;;;;;16.70;8.00;;;;;;;19.77;46.72;100211.53;5130062;27;20377;-65
2021/09/11 06:22:48;;;;;;;14.07;8.02;;;;;;;19.83;46.92;100212.69;5132858;27;20054;-63
2021/09/11 06:25:14;;;;;;;15.13;7.72;;;;;;;19.78;46.21;100177.06;5132653;27;20035;-63
2021/09/11 06:27:41;;;;;;;18.10;8.15;;;;;;;20.05;46.56;100221.97;5132687;27;20035;-63
2021/09/11 06:30:08;;;;;;;14.65;8.07;;;;;;;20.12;45.81;100218.53;5130866;27;20046;-65
2021/09/11 06:32:33;;;;;;;13.52;7.88;;;;;;;20.07;46.03;100208.22;5129599;27;20031;-65
2021/09/11 06:34:59;;;;;;;14.45;7.60;;;;;;;20.17;46.33;100208.84;5132572;27;20091;-65
2021/09/11 06:37:25;;;;;;;13.52;7.50;;;;;;;20.46;45.92;100223.63;5132611;27;20050;-64
2021/09/11 06:39:50;;;;;;;15.13;7.80;;;;;;;20.61;45.05;100207.38;5130917;27;20125;-65
2021/09/11 06:42:19;;;;;;;14.45;7.93;;;;;;;20.61;44.82;100207.38;5120508;27;20404;-65
2021/09/11 06:44:44;;;;;;;15.27;8.32;;;;;;;20.52;45.23;100222.06;5111885;28;20020;-65
2021/09/11 06:47:10;;;;;;;14.70;7.85;;;;;;;20.40;46.20;100216.19;5110358;28;20437;-64
2021/09/11 06:49:35;;;;;;;19.60;8.90;;;;;;;20.30;45.92;100221.03;5130336;27;20023;-65
2021/09/11 06:52:01;;;;;;;19.17;8.40;;;;;;;20.19;46.44;100211.41;5108433;28;20118;-65
2021/09/11 06:54:26;;;;;;;17.48;8.55;;;;;;;20.12;46.97;100213.97;5112087;28;20032;-65
2021/09/11 06:56:52;;;;;;;17.33;8.00;;;;;;;20.05;46.70;100215.72;5111404;28;20027;-65
2021/09/11 06:59:17;;;;;;;15.68;8.30;;;;;;;20.01;46.88;100217.06;5102780;27;20034;-64
2021/09/11 07:01:43;;;;;;;14.77;8.50;;;;;;;20.00;47.16;100218.94;5130870;27;20031;-64
2021/09/11 07:04:08;;;;;;;18.50;7.85;;;;;;;20.17;47.09;100219.72;5113185;27;20127;-64
2021/09/11 07:06:34;;;;;;;15.38;7.45;;;;;;;20.33;46.50;100213.34;5111539;28;20024;-65
2021/09/11 07:08:59;;;;;;;11.93;7.57;;;;;;;20.51;45.84;100213.09;5111483;28;20051;-65
2021/09/11 07:11:25;;;;;;;15.48;8.00;;;;;;;20.49;45.74;100220.56;5110717;28;20024;-64
2021/09/11 07:13:50;;;;;;;9.57;7.80;;;;;;;20.39;46.26;100210.94;5110422;28;20028;-65
2021/09/11 07:16:16;;;;;;;12.57;7.65;;;;;;;20.40;46.30;100224.34;5109937;28;20046;-63
2021/09/11 07:18:41;;;;;;;10.32;7.93;;;;;;;20.50;46.05;100214.13;5110041;28;20031;-65
2021/09/11 07:21:07;;;;;;;11.95;7.80;;;;;;;20.69;45.57;100211.09;5109004;28;20031;-65
2021/09/11 07:23:34;;;;;;;11.68;7.00;;;;;;;20.85;45.05;100202.00;5110921;28;20062;-63
2021/09/11 07:26:00;;;;;;;11.02;7.00;;;;;;;20.81;45.22;100215.09;5111319;28;20093;-63
2021/09/11 07:28:25;;;;;;;13.20;7.85;;;;;;;20.92;44.88;100205.66;5114541;28;20035;-61
2021/09/11 07:30:51;;;;;;;14.20;7.80;;;;;;;21.14;44.75;100203.97;5112848;28;20032;-62
2021/09/11 07:33:16;;;;;;;17.45;8.27;;;;;;;21.37;43.70;100198.44;5114143;28;20031;-60
2021/09/11 07:35:42;;;;;;;19.83;7.97;;;;;;;21.70;43.56;100199.16;5115318;27;20453;-60
2021/09/11 07:38:08;;;;;;;15.63;6.80;;;;;;;21.91;42.74;100193.78;5115205;28;20119;-61
2021/09/11 07:40:34;;;;;;;14.50;7.30;;;;;;;22.00;42.51;100201.88;5115111;28;20123;-63
2021/09/11 07:43:01;;;;;;;9.52;7.18;;;;;;;22.02;42.44;100206.09;5115928;28;20024;-64
2021/09/11 07:45:26;;;;;;;11.80;6.72;;;;;;;21.93;42.34;100199.06;5115995;27;20024;-60
2021/09/11 07:47:52;;;;;;;12.68;6.90;;;;;;;21.92;42.51;100198.19;5127412;27;20521;-64
2021/09/11 07:50:19;;;;;;;16.33;7.25;;;;;;;22.05;42.63;100204.88;5136033;27;20035;-63
2021/09/11 07:52:44;;;;;;;12.43;7.30;;;;;;;22.06;42.56;100196.53;5136174;27;20037;-63
2021/09/11 07:55:10;;;;;;;11.35;6.82;;;;;;;22.15;42.48;100197.22;5129093;27;20026;-64
2021/09/11 07:57:35;;;;;;;11.30;6.68;;;;;;;22.21;42.08;100199.22;5096337;28;20084;-63
2021/09/11 08:00:01;;;;;;;14.38;6.72;;;;;;;22.25;42.08;100196.09;5134694;27;20035;-66
2021/09/11 08:02:27;;;;;;;9.68;6.60;;;;;;;22.37;41.99;100202.72;5117540;27;20035;-64
2021/09/11 08:04:52;;;;;;;13.82;6.93;;;;;;;22.32;42.05;100194.28;5135138;27;20027;-64
2021/09/11 08:07:18;;;;;;;9.65;6.60;;;;;;;22.03;42.20;100182.41;5116808;27;20073;-63
2021/09/11 08:09:44;;;;;;;12.35;6.80;;;;;;;21.88;42.77;100187.88;5115027;28;20034;-64
2021/09/11 08:12:09;;;;;;;12.50;6.68;;;;;;;21.62;43.63;100186.47;5114303;28;20469;-63
2021/09/11 08:14:35;;;;;;;10.13;6.45;;;;;;;21.42;44.18;100187.00;5114735;28;20381;-64
2021/09/11 08:17:02;;;;;;;12.73;6.55;;;;;;;21.10;44.52;100152.78;5115934;27;20028;-64
2021/09/11 08:19:27;;;;;;;12.13;6.60;;;;;;;21.19;44.82;100179.75;5114795;28;20032;-65
2021/09/11 08:21:52;;;;;;;11.25;6.47;;;;;;;21.00;44.96;100148.47;5114385;28;20024;-65
2021/09/11 08:24:18;;;;;;;10.88;6.05;;;;;;;21.15;45.21;100183.00;5114389;28;20024;-65
2021/09/11 08:26:43;;;;;;;10.13;6.10;;;;;;;21.17;45.17;100186.41;5115440;27;20051;-65
2021/09/11 08:29:09;;;;;;;12.05;6.72;;;;;;;21.14;45.01;100170.44;5114966;28;20047;-65
2021/09/11 08:31:34;;;;;;;8.43;6.05;;;;;;;21.10;44.83;100171.84;5114336;28;20107;-67
2021/09/11 08:34:00;;;;;;;11.02;6.28;;;;;;;20.85;45.06;100148.41;5113158;28;20098;-64
2021/09/11 08:36:25;;;;;;;16.30;5.80;;;;;;;20.94;45.44;100176.38;5114090;28;20035;-65
2021/09/11 08:38:50;;;;;;;9.15;5.47;;;;;;;20.83;46.21;100179.56;5114698;27;20168;-65
2021/09/11 08:41:16;;;;;;;10.43;5.22;;;;;;;20.79;45.77;100169.03;5112820;28;20031;-65
2021/09/11 08:43:42;;;;;;;8.60;4.55;;;;;;;20.81;45.67;100159.84;5129880;27;20035;-61
2021/09/11 08:46:07;;;;;;;7.88;4.55;;;;;;;20.82;45.76;100156.94;5133778;27;20023;-63
2021/09/11 08:48:33;;;;;;;9.73;4.40;;;;;;;20.89;45.68;100168.78;5133047;27;20111;-64
2021/09/11 08:50:59;;;;;;;8.20;4.40;;;;;;;20.88;45.66;100168.97;5134110;27;20031;-65
2021/09/11 08:53:24;;;;;;;8.45;4.55;;;;;;;20.87;45.27;100176.31;5112196;27;20070;-64
2021/09/11 08:55:50;;;;;;;4.85;3.80;;;;;;;20.77;45.33;100179.25;5110267;28;20028;-64
2021/09/11 08:58:20;;;;;;;7.82;3.90;;;;;;;20.77;45.46;100171.06;5112602;28;20080;-64
2021/09/11 09:00:54;;;;;;;8.98;4.50;;;;;;;20.55;45.80;100142.00;5113807;28;20050;-65
2021/09/11 09:03:35;;;;;;;8.93;4.13;;;;;;;20.73;45.75;100172.44;5113752;28;20056;-65
2021/09/11 09:06:11;;;;;;;11.88;4.32;;;;;;;20.74;46.00;100176.88;5132464;27;20027;-64
2021/09/11 09:08:37;;;;;;;5.28;3.70;;;;;;;20.54;45.97;100159.34;5134008;27;20031;-65
2021/09/11 09:11:26;;;;;;;7.03;3.42;;;;;;;20.76;46.18;100169.38;5133148;27;20034;-65
2021/09/11 09:14:03;;;;;;;3.63;2.75;;;;;;;20.67;46.18;100164.19;5134181;27;20035;-66
2021/09/11 09:16:32;;;;;;;8.65;3.72;;;;;;;20.52;46.00;100164.97;5133036;27;20111;-64
2021/09/11 09:19:02;;;;;;;5.60;3.40;;;;;;;20.32;46.36;100140.13;5112712;28;20043;-64
2021/09/11 09:21:31;;;;;;;4.15;3.50;;;;;;;20.35;46.37;100156.91;5113319;28;20024;-66
2021/09/11 09:24:02;;;;;;;4.35;2.40;;;;;;;20.19;46.25;100130.66;5113269;28;20037;-65
2021/09/11 09:26:30;;;;;;;2.85;2.50;;;;;;;20.20;46.48;100151.38;5111405;28;20047;-65
2021/09/11 09:29:02;;;;;;;3.50;2.30;;;;;;;20.19;46.33;100149.69;5113077;28;20039;-63
2021/09/11 09:31:28;;;;;;;2.90;2.30;;;;;;;20.04;46.64;100137.91;5112416;27;20413;-65
2021/09/11 09:33:54;;;;;;;7.38;2.40;;;;;;;20.19;46.37;100146.16;5129567;27;20019;-65
2021/09/11 09:36:20;;;;;;;5.88;2.35;;;;;;;20.40;46.47;100141.94;5132597;27;20110;-64
2021/09/11 09:38:57;;;;;;;3.38;2.25;;;;;;;20.55;46.09;100139.28;5133794;27;20114;-64
2021/09/11 09:41:22;;;;;;;3.72;2.28;;;;;;;20.61;45.69;100122.22;5130490;27;20031;-62
2021/09/11 09:43:48;;;;;;;5.45;2.42;;;;;;;20.75;45.65;100135.03;5116607;27;20039;-64
2021/09/11 09:46:16;;;;;;;3.38;2.70;;;;;;;20.92;45.56;100140.34;5124141;27;20058;-64
2021/09/11 09:48:43;;;;;;;4.90;2.70;;;;;;;21.00;45.90;100136.72;5115447;27;20333;-65
2021/09/11 09:51:09;;;;;;;6.50;2.88;;;;;;;21.03;45.79;100137.19;5120803;27;20034;-62
2021/09/11 09:53:40;;;;;;;7.38;3.20;;;;;;;20.97;45.77;100112.59;5112767;28;20106;-66
2021/09/11 09:56:07;;;;;;;5.13;2.90;;;;;;;20.89;45.68;100095.31;5111398;27;20449;-62
2021/09/11 09:58:33;;;;;;;4.53;2.92;;;;;;;21.07;45.85;100122.19;5112617;28;20027;-64
2021/09/11 10:00:59;;;;;;;6.80;2.90;;;;;;;21.06;45.85;100117.78;5121539;27;20085;-61
2021/09/11 10:03:24;;;;;;;4.63;3.22;;;;;;;21.09;45.92;100119.25;5122552;27;20051;-61
2021/09/11 10:05:57;;;;;;;3.35;2.70;;;;;;;21.12;46.01;100116.19;5119920;27;20034;-61
2021/09/11 10:08:26;;;;;;;8.95;4.40;;;;;;;21.11;46.69;100121.81;5127017;27;20057;-55
2021/09/11 10:10:52;;;;;;;4.85;2.95;;;;;;;21.02;46.40;100108.28;5131452;27;20031;-57
2021/09/11 10:13:21;;;;;;;3.78;3.28;;;;;;;21.03;46.78;100115.41;5131302;27;20027;-57
2021/09/11 10:16:04;;;;;;;3.40;3.00;;;;;;;21.11;47.00;100108.19;5132369;27;20042;-56
2021/09/11 10:18:29;;;;;;;3.08;2.72;;;;;;;20.90;47.41;100107.88;5132546;27;20031;-58
2021/09/11 10:21:17;;;;;;;7.72;3.53;;;;;;;21.04;47.62;100121.69;5130840;27;20042;-55
2021/09/11 10:24:04;;;;;;;3.55;3.00;;;;;;;20.85;48.23;100109.47;5132801;27;20439;-54
2021/09/11 10:26:50;;;;;;;8.23;2.85;;;;;;;20.96;47.94;100110.91;5131454;27;20126;-56
2021/09/11 10:29:30;;;;;;;5.40;2.65;;;;;;;20.90;48.04;100110.63;5132617;27;20035;-57
2021/09/11 10:31:58;;;;;;;8.80;3.30;;;;;;;20.79;48.15;100114.63;5130959;27;20102;-56
2021/09/11 10:34:44;;;;;;;5.82;3.50;;;;;;;21.01;48.04;100100.28;5132777;27;20038;-58
2021/09/11 10:37:10;;;;;;;8.75;3.33;;;;;;;20.84;48.21;100099.63;5131949;27;20043;-56
2021/09/11 10:39:36;;;;;;;6.93;3.35;;;;;;;20.90;48.37;100088.84;5132623;27;20472;-57
2021/09/11 10:42:06;;;;;;;8.50;3.30;;;;;;;21.02;47.98;100091.09;5130606;27;20031;-60
2021/09/11 10:44:32;;;;;;;7.00;3.08;;;;;;;20.85;48.54;100085.81;5128559;27;20030;-60
2021/09/11 10:46:58;;;;;;;5.72;3.15;;;;;;;20.88;48.46;100090.91;5130922;27;20031;-60
2021/09/11 10:49:32;;;;;;;7.68;3.40;;;;;;;20.95;48.44;100093.72;5131482;27;20031;-58
2021/09/11 10:52:11;;;;;;;8.48;3.20;;;;;;;20.82;48.83;100086.19;5132246;27;20031;-58
2021/09/11 10:54:41;;;;;;;5.43;3.25;;;;;;;20.71;48.67;100090.16;5132853;27;20106;-59
2021/09/11 10:57:09;;;;;;;11.23;3.80;;;;;;;20.56;49.06;100083.84;5126692;27;20057;-56
2021/09/11 10:59:39;;;;;;;5.57;3.40;;;;;;;20.48;49.35;100085.59;5120940;27;20552;-56
2021/09/11 11:02:34;;;;;;;6.50;3.72;;;;;;;20.61;49.16;100084.16;5130211;27;20457;-62
2021/09/11 11:05:11;;;;;;;8.60;3.80;;;;;;;20.39;49.70;100081.25;5131365;27;20981;-58
2021/09/11 11:07:42;;;;;;;7.22;4.00;;;;;;;20.29;50.26;100078.78;5130889;27;20069;-57
2021/09/11 11:10:10;;;;;;;8.32;3.83;;;;;;;19.96;50.41;100040.13;5124553;27;20035;-56
2021/09/11 11:12:45;;;;;;;8.27;3.63;;;;;;;20.18;50.39;100062.91;5111527;28;20529;-60
2021/09/11 11:15:13;;;;;;;6.43;3.73;;;;;;;20.14;50.40;100051.53;5111600;28;20117;-59
2021/09/11 11:17:47;;;;;;;8.07;3.88;;;;;;;20.19;50.25;100043.69;5110985;28;20063;-57
2021/09/11 11:20:14;;;;;;;6.45;3.80;;;;;;;20.33;50.29;100052.09;5111402;28;20038;-57